Terminal Aerodrome Forecast
Issued by NWS

Home | Current Version | Previous Version | Text Only | Print | Product List | Glossary On
Versions: 1 2 3 4 5 6 7 8 9 10 11 12 13 14 15 16
000
FTAK31 PAJN 292300
TAFAWG
TAF
PAWG 292340Z 3000/3024 22005KT P6SM -SHRA SCT005 BKN035 OVC050
      TEMPO 3000/3003 4SM -SHRA BR BKN005 BKN025 OVC050
     FM300600 VRB03KT P6SM BCFG VCSH SCT005 SCT025 OVC050
     FM301500 VRB03KT P6SM BCFG VCSH SCT005 SCT030 BKN050
     FM302100 31005KT P6SM SCT050 BKN100
      AMD LTD TO CLD VIS AND WIND 3006/3015=

USA.gov is the U.S. government's official web portal to all federal, state and local government web resources and services.